MT WASHINGTON (MTW)

Elevation: 920' · LOS ANGELES R basin · Operator: Los Angeles County Fire Dept

Query executed Saturday at 15:35:51   clock

Provisional data, subject to change.
Select a sensor type for a plot of data.

Earlier

Date   /   Time   RAIN     TEMP     REL HUM     BAR PRE     FUEL MS     FUEL TP     WIND SP     WIND DR     PEAK WS     PEAK WD     SOLAR R     BAT VOL    
(PDT)INCHES   DEG F   %   INCHES   %   DEG F   MPH   DEG   MPH   DEG   W/M^2   VOLTS  
10/24/2014 16:00 0.00 85 20 -- 5 83 -- -- -- -- 170.00 12.9
10/24/2014 17:00 0.00 80 26 -- 5 79 -- -- -- -- 49.00 12.6
10/24/2014 18:00 0.00 75 45 -- 6 74 -- -- -- -- 1.00 12.5
10/24/2014 19:00 0.00 74 53 -- 7 72 -- -- -- -- 0.00 12.5
10/24/2014 20:00 0.00 71 54 -- 7 70 -- -- -- -- 0.00 12.5
10/24/2014 21:00 0.00 70 55 -- 7 69 -- -- -- -- 0.00 12.5
10/24/2014 22:00 0.00 69 54 -- 8 67 -- -- -- -- 0.00 12.4
10/24/2014 23:00 0.00 67 52 -- 8 66 -- -- -- -- 0.00 12.4
10/25/2014 00:00 0.00 68 58 -- 8 65 -- -- -- -- 0.00 12.4
10/25/2014 01:00 0.00 65 57 -- 8 64 -- -- -- -- 0.00 12.4
10/25/2014 02:00 0.00 64 47 -- 9 62 -- -- -- -- 0.00 12.4
10/25/2014 03:00 0.00 67 49 -- 9 65 -- -- -- -- 0.00 12.3
10/25/2014 04:00 0.00 62 62 -- 9 61 -- -- -- -- 0.00 12.3
10/25/2014 05:00 0.00 64 64 -- 9 63 -- -- -- -- 0.00 12.3
10/25/2014 06:00 0.00 63 53 -- 9 63 -- -- -- -- 0.00 12.3
10/25/2014 07:00 0.00 64 48 -- 9 64 -- -- -- -- 14.00 12.3
10/25/2014 08:00 0.00 70 35 -- 8 68 -- -- -- -- 70.00 12.9
10/25/2014 09:00 0.00 79 28 -- 8 77 -- -- -- -- 336.00 13.4
10/25/2014 10:00 0.00 76 31 -- 8 81 -- -- -- -- 511.00 13.4
10/25/2014 11:00 0.00 80 31 -- 8 86 -- -- -- -- 610.00 13.4
10/25/2014 12:00 0.00 88 28 -- 7 95 -- -- -- -- 460.00 13.4
10/25/2014 13:00 0.00 85 18 -- 6 98 -- -- -- -- 600.00 13.4
10/25/2014 14:00 0.00 86 19 -- 6 96 -- -- -- -- 546.00 13.4
10/25/2014 15:00 -- -- -- -- -- -- -- -- -- -- -- --

Later | Latest

Warning! This data is preliminary and subject to revision.

Show MTW Map | 24 Hours MTW Data | Plot all MTW Sensors | Daily MTW Data | MTW Info